Gunder, Iowa
Current Conditions -  °F | °C
As of 5:15 AM on Thursday 23 Oct 2014 (Local Time) from KPDC Reporting Station
Overcast Overcast  
Wind Chill: 51°   Ceiling: 4500
Heat Index: 51°   Visibility: 10mi
Dew Point: 37°   Wind: 7mph
Humidity: 59%   Direction: 120°ESE
Pressure: 30.11"   Gusts: NA
Location:  42.9942°N, 91.5477°W
Report Text: KPDC 231015Z AUTO 12006KT 10SM OVC045 11/03 A3011 RMK AO2 T01080030
Loading
Personal Weather Stations






























Interactive Weather Map
Tropical Storm Tracking
New forecast layout! Learn more

10-Day Weather Forecast

Advertisements
Track Severe Weather on mobile